Time;durP1;ratioP1;P1;durP2;ratioP2;P2;SDS_P1;SDS_P2;PMS_P1;PMS_P2;Temp;Humidity;BMP_temperature;BMP_pressure;BME280_temperature;BME280_humidity;BME280_pressure;Samples;Min_cycle;Max_cycle;Signal;HPM_P1;HPM_P2
2021/09/02 00:00:57;;;;;;;19.30;17.30;;;12.00;99.90;;;;;;5071398;28;20380;-79
2021/09/02 00:03:23;;;;;;;27.40;23.08;;;12.00;99.90;;;;;;5071261;28;20470;-84
2021/09/02 00:05:49;;;;;;;24.83;20.33;;;12.00;99.90;;;;;;5071315;28;20406;-82
2021/09/02 00:08:14;;;;;;;21.58;19.35;;;12.00;99.90;;;;;;5071343;28;20863;-82
2021/09/02 00:10:40;;;;;;;21.53;19.27;;;11.90;99.90;;;;;;5071263;28;20563;-83
2021/09/02 00:13:06;;;;;;;20.03;17.90;;;11.90;99.90;;;;;;5071161;28;20376;-82
2021/09/02 00:15:31;;;;;;;31.38;27.30;;;11.90;99.90;;;;;;5069809;28;20759;-82
2021/09/02 00:17:57;;;;;;;21.00;18.80;;;11.90;99.90;;;;;;5071157;28;21049;-82
2021/09/02 00:20:23;;;;;;;18.70;16.70;;;11.90;99.90;;;;;;5069254;28;20443;-81
2021/09/02 00:22:48;;;;;;;17.33;15.38;;;11.80;99.90;;;;;;5070887;28;20401;-80
2021/09/02 00:25:14;;;;;;;17.90;16.08;;;11.80;99.90;;;;;;5071096;28;20396;-83
2021/09/02 00:27:39;;;;;;;19.90;17.70;;;11.70;99.90;;;;;;5070907;28;20409;-84
2021/09/02 00:30:06;;;;;;;17.48;15.68;;;11.70;99.90;;;;;;5070845;28;20397;-83
2021/09/02 00:32:32;;;;;;;19.33;16.70;;;11.60;99.90;;;;;;5070929;28;20398;-80
2021/09/02 00:34:58;;;;;;;22.20;19.77;;;11.60;99.90;;;;;;5070834;28;20374;-81
2021/09/02 00:37:24;;;;;;;21.23;19.00;;;11.60;99.90;;;;;;5070866;28;20376;-84
2021/09/02 00:39:49;;;;;;;18.58;16.67;;;11.60;99.90;;;;;;5070722;28;20382;-84
2021/09/02 00:42:15;;;;;;;25.80;18.93;;;11.50;99.90;;;;;;5070708;28;20929;-82
2021/09/02 00:44:47;;;;;;;19.42;17.45;;;11.50;99.90;;;;;;5070685;28;20429;-81
2021/09/02 00:47:17;;;;;;;19.33;17.25;;;11.50;99.90;;;;;;5070663;28;20489;-80
2021/09/02 00:49:43;;;;;;;18.45;16.65;;;11.50;99.90;;;;;;5070174;28;20867;-81
2021/09/02 00:52:15;;;;;;;18.63;16.63;;;11.50;99.90;;;;;;5069368;28;20895;-81
2021/09/02 00:54:43;;;;;;;20.85;17.63;;;11.50;99.90;;;;;;5069350;28;20390;-81
2021/09/02 00:57:13;;;;;;;21.83;19.60;;;11.50;99.90;;;;;;5070300;28;20378;-83
2021/09/02 00:59:39;;;;;;;21.93;19.70;;;11.50;99.90;;;;;;5070095;28;20395;-83
2021/09/02 01:02:07;;;;;;;20.43;18.17;;;11.50;99.90;;;;;;5070097;28;20413;-80
2021/09/02 01:04:33;;;;;;;22.80;20.37;;;11.50;99.90;;;;;;5070749;28;20392;-82
2021/09/02 01:06:59;;;;;;;19.17;17.17;;;11.50;99.90;;;;;;5070351;28;20398;-82
2021/09/02 01:09:27;;;;;;;18.33;16.43;;;11.50;99.90;;;;;;5068496;28;20378;-81
2021/09/02 01:11:54;;;;;;;19.87;17.60;;;11.40;99.90;;;;;;5070244;28;20378;-80
2021/09/02 01:14:20;;;;;;;21.55;19.35;;;11.40;99.90;;;;;;5069947;28;20364;-81
2021/09/02 01:16:49;;;;;;;22.08;19.67;;;11.40;99.90;;;;;;5069790;28;20369;-82
2021/09/02 01:19:19;;;;;;;22.08;19.67;;;11.40;99.90;;;;;;5069614;28;20377;-83
2021/09/02 01:21:45;;;;;;;21.83;19.60;;;11.50;99.90;;;;;;5070024;28;20367;-80
2021/09/02 01:24:11;;;;;;;21.73;18.33;;;11.40;99.90;;;;;;5068316;28;20956;-82
2021/09/02 01:26:36;;;;;;;20.07;17.97;;;11.40;99.90;;;;;;5069763;28;20405;-81
2021/09/02 01:29:03;;;;;;;20.60;17.92;;;11.40;99.90;;;;;;5069683;28;20476;-83
2021/09/02 01:31:29;;;;;;;20.95;18.08;;;11.30;99.90;;;;;;5068250;28;20507;-81
2021/09/02 01:33:55;;;;;;;22.20;19.40;;;11.30;99.90;;;;;;5069653;28;20457;-81
2021/09/02 01:36:20;;;;;;;22.20;19.90;;;11.30;99.90;;;;;;5069678;28;20508;-81
2021/09/02 01:38:46;;;;;;;24.27;20.10;;;11.30;99.90;;;;;;5068967;28;20450;-82
2021/09/02 01:41:12;;;;;;;21.13;18.83;;;11.30;99.90;;;;;;5069591;28;20377;-82
2021/09/02 01:43:37;;;;;;;19.30;17.30;;;11.40;99.90;;;;;;5069252;28;20894;-83
2021/09/02 01:46:03;;;;;;;19.10;17.10;;;11.40;99.90;;;;;;5069042;28;20428;-81
2021/09/02 01:48:36;;;;;;;18.50;16.50;;;11.40;99.90;;;;;;5067483;28;20418;-82
2021/09/02 01:51:02;;;;;;;17.15;15.48;;;11.40;99.90;;;;;;5069285;28;20981;-82
2021/09/02 01:53:29;;;;;;;17.42;15.70;;;11.40;99.90;;;;;;5067643;28;20374;-82
2021/09/02 01:55:55;;;;;;;20.60;17.98;;;11.30;99.90;;;;;;5067860;28;20386;-82
2021/09/02 01:58:21;;;;;;;19.73;17.80;;;11.30;99.90;;;;;;5069103;28;20859;-82
2021/09/02 02:00:47;;;;;;;20.02;17.92;;;11.30;99.90;;;;;;5069130;28;21205;-83
2021/09/02 02:03:13;;;;;;;20.25;17.65;;;11.30;99.90;;;;;;5069280;28;20401;-82
2021/09/02 02:05:39;;;;;;;19.03;17.13;;;11.30;99.90;;;;;;5069093;28;20856;-83
2021/09/02 02:08:05;;;;;;;17.40;15.47;;;11.30;99.90;;;;;;5069072;28;20370;-82
2021/09/02 02:10:31;;;;;;;17.73;15.95;;;11.30;99.90;;;;;;5067224;28;20374;-83
2021/09/02 02:12:59;;;;;;;17.92;16.10;;;11.30;99.90;;;;;;5068946;28;20453;-80
2021/09/02 02:15:26;;;;;;;17.80;15.90;;;11.20;99.90;;;;;;5067220;28;20398;-81
2021/09/02 02:17:52;;;;;;;21.75;18.98;;;11.20;99.90;;;;;;5067714;28;20786;-83
2021/09/02 02:20:17;;;;;;;20.52;18.33;;;11.20;99.90;;;;;;5067093;28;20584;-81
2021/09/02 02:22:44;;;;;;;18.83;16.83;;;11.20;99.90;;;;;;5068753;28;20959;-82
2021/09/02 02:25:11;;;;;;;20.00;17.90;;;11.10;99.90;;;;;;5068854;28;20370;-83
2021/09/02 02:27:38;;;;;;;19.48;17.52;;;11.10;99.90;;;;;;5066911;28;21006;-83
2021/09/02 02:30:05;;;;;;;20.50;18.30;;;11.10;99.90;;;;;;5068198;28;20370;-82
2021/09/02 02:32:31;;;;;;;21.75;19.60;;;11.10;99.90;;;;;;5068688;28;20457;-82
2021/09/02 02:34:57;;;;;;;18.40;16.43;;;11.10;99.90;;;;;;5068599;28;21053;-82
2021/09/02 02:37:22;;;;;;;19.90;17.75;;;11.10;99.90;;;;;;5068541;28;20405;-82
2021/09/02 02:39:48;;;;;;;20.95;18.77;;;11.10;99.90;;;;;;5068236;28;20370;-82
2021/09/02 02:42:14;;;;;;;20.30;17.50;;;11.10;99.90;;;;;;5067315;28;20783;-81
2021/09/02 02:44:40;;;;;;;19.97;17.90;;;11.10;99.90;;;;;;5068465;28;20401;-82
2021/09/02 02:47:07;;;;;;;21.33;19.13;;;11.10;99.90;;;;;;5068143;28;20402;-83
2021/09/02 02:49:33;;;;;;;18.88;16.98;;;11.20;99.90;;;;;;5068111;28;20420;-81
2021/09/02 02:51:58;;;;;;;18.15;16.23;;;11.20;99.90;;;;;;5068422;28;20378;-84
2021/09/02 02:54:24;;;;;;;18.40;16.50;;;11.10;99.90;;;;;;5068372;28;20362;-81
2021/09/02 02:56:49;;;;;;;22.43;18.53;;;11.10;99.90;;;;;;5068214;28;20385;-82
2021/09/02 02:59:15;;;;;;;20.67;18.53;;;11.10;99.90;;;;;;5067888;28;20377;-81
2021/09/02 03:01:41;;;;;;;19.38;17.38;;;11.10;99.90;;;;;;5068456;28;20376;-81
2021/09/02 03:04:06;;;;;;;21.23;18.97;;;11.10;99.90;;;;;;5068448;28;20366;-82
2021/09/02 03:06:32;;;;;;;18.43;16.57;;;11.10;99.90;;;;;;5068412;28;20456;-84
2021/09/02 03:09:00;;;;;;;20.23;18.13;;;11.10;99.90;;;;;;5067685;28;20386;-84
2021/09/02 03:11:25;;;;;;;20.37;18.27;;;11.10;99.90;;;;;;5066566;28;20855;-81
2021/09/02 03:13:51;;;;;;;19.80;17.80;;;11.10;99.90;;;;;;5068472;28;20401;-83
2021/09/02 03:16:16;;;;;;;19.42;17.48;;;11.10;99.90;;;;;;5068017;28;20374;-84
2021/09/02 03:18:42;;;;;;;17.60;15.87;;;11.10;99.90;;;;;;5068154;28;20367;-82
2021/09/02 03:21:07;;;;;;;19.57;17.17;;;11.10;99.90;;;;;;5068129;28;20402;-82
2021/09/02 03:23:34;;;;;;;23.15;20.58;;;11.10;99.90;;;;;;5067055;28;20382;-85
2021/09/02 03:25:59;;;;;;;19.85;17.85;;;11.10;99.90;;;;;;5067903;28;20495;-84
2021/09/02 03:28:25;;;;;;;20.47;17.70;;;11.10;99.90;;;;;;5069213;28;20878;-81
2021/09/02 03:30:50;;;;;;;21.43;17.87;;;11.00;99.90;;;;;;5072186;28;20385;-85
2021/09/02 03:33:16;;;;;;;19.25;17.25;;;11.00;99.90;;;;;;5071791;28;20384;-83
2021/09/02 03:35:41;;;;;;;22.63;19.77;;;11.00;99.90;;;;;;5071702;28;20855;-84
2021/09/02 03:38:07;;;;;;;22.07;19.73;;;11.00;99.90;;;;;;5071748;28;20378;-84
2021/09/02 03:40:33;;;;;;;19.67;17.70;;;11.00;99.90;;;;;;5070276;28;20867;-83
2021/09/02 03:42:59;;;;;;;19.42;17.42;;;11.00;99.90;;;;;;5071539;28;20392;-84
2021/09/02 03:45:24;;;;;;;20.05;18.05;;;11.00;99.90;;;;;;5071464;28;20390;-81
2021/09/02 03:47:50;;;;;;;20.50;17.60;;;11.00;99.90;;;;;;5070634;28;20431;-83
2021/09/02 03:50:18;;;;;;;20.65;18.33;;;11.00;99.90;;;;;;5071194;28;20362;-84
2021/09/02 03:52:44;;;;;;;21.60;19.20;;;11.00;99.90;;;;;;5071228;28;20377;-82
2021/09/02 03:55:11;;;;;;;18.80;16.80;;;11.00;99.90;;;;;;5071592;28;20378;-81
2021/09/02 03:57:37;;;;;;;18.85;16.95;;;11.00;99.90;;;;;;5070103;28;20385;-84
2021/09/02 04:00:08;;;;;;;18.20;16.38;;;11.00;99.90;;;;;;5070784;28;20919;-82
2021/09/02 04:02:34;;;;;;;18.60;16.70;;;11.00;99.90;;;;;;5071444;28;20417;-83
2021/09/02 04:05:00;;;;;;;21.93;19.63;;;11.00;99.90;;;;;;5071472;28;20421;-83
2021/09/02 04:07:26;;;;;;;19.20;17.23;;;11.00;99.90;;;;;;5071324;28;20868;-80
2021/09/02 04:09:51;;;;;;;19.97;17.87;;;11.00;99.90;;;;;;5069443;28;20431;-81
2021/09/02 04:12:17;;;;;;;18.10;16.23;;;11.00;99.90;;;;;;5071460;28;20910;-83
2021/09/02 04:14:42;;;;;;;18.23;16.33;;;11.00;99.90;;;;;;5070188;28;20382;-81
2021/09/02 04:17:08;;;;;;;18.35;16.45;;;11.00;99.90;;;;;;5071162;28;20519;-81
2021/09/02 04:19:33;;;;;;;19.90;17.77;;;11.00;99.90;;;;;;5070648;28;20468;-83
2021/09/02 04:22:00;;;;;;;20.67;18.57;;;11.00;99.90;;;;;;5071099;28;20365;-81
2021/09/02 04:24:28;;;;;;;21.48;19.20;;;11.00;99.90;;;;;;5070929;28;20427;-81
2021/09/02 04:26:54;;;;;;;20.90;18.70;;;11.00;99.90;;;;;;5070939;28;20398;-81
2021/09/02 04:29:20;;;;;;;24.52;20.60;;;11.00;99.90;;;;;;5068978;28;20390;-82
2021/09/02 04:31:46;;;;;;;20.77;18.55;;;11.00;99.90;;;;;;5071212;28;20717;-81
2021/09/02 04:34:11;;;;;;;19.95;17.80;;;11.10;99.90;;;;;;5070864;28;20511;-80
2021/09/02 04:36:37;;;;;;;21.67;18.73;;;11.10;99.90;;;;;;5070608;28;20412;-81
2021/09/02 04:39:04;;;;;;;24.55;20.70;;;11.10;99.90;;;;;;5069929;28;20379;-80
2021/09/02 04:41:29;;;;;;;19.35;17.17;;;11.10;99.90;;;;;;5070803;28;20371;-81
2021/09/02 04:43:55;;;;;;;25.10;21.20;;;11.20;99.90;;;;;;5070888;28;20377;-81
2021/09/02 04:46:21;;;;;;;25.27;20.43;;;11.20;99.90;;;;;;5070332;28;20416;-80
2021/09/02 04:48:46;;;;;;;18.45;16.58;;;11.20;99.90;;;;;;5070367;28;20562;-79
2021/09/02 04:51:12;;;;;;;19.45;17.55;;;11.30;99.90;;;;;;5069186;28;20876;-80
2021/09/02 04:53:38;;;;;;;18.45;16.58;;;11.30;99.90;;;;;;5070187;28;20404;-81
2021/09/02 04:56:03;;;;;;;18.13;16.20;;;11.30;99.90;;;;;;5070401;28;20799;-80
2021/09/02 04:58:29;;;;;;;19.50;17.40;;;11.40;99.90;;;;;;5070079;28;20366;-79
2021/09/02 05:00:54;;;;;;;23.15;19.92;;;11.40;99.90;;;;;;5070341;28;20377;-80
2021/09/02 05:03:20;;;;;;;23.17;19.83;;;11.40;99.90;;;;;;5070432;28;20380;-80
2021/09/02 05:05:46;;;;;;;26.08;18.92;;;11.50;99.90;;;;;;5070140;28;20371;-81
2021/09/02 05:08:11;;;;;;;22.50;18.57;;;11.50;99.90;;;;;;5069849;28;20898;-80
2021/09/02 05:10:37;;;;;;;28.45;20.48;;;11.60;99.90;;;;;;5069447;28;20837;-81
2021/09/02 05:13:02;;;;;;;27.33;17.67;;;11.70;99.90;;;;;;5070262;28;20381;-79
2021/09/02 05:15:28;;;;;;;23.57;17.37;;;11.80;99.90;;;;;;5069790;28;20381;-79
2021/09/02 05:17:54;;;;;;;24.67;18.88;;;11.90;99.90;;;;;;5069592;28;20366;-79
2021/09/02 05:20:19;;;;;;;22.85;18.40;;;12.10;99.90;;;;;;5069507;28;20371;-80
2021/09/02 05:22:45;;;;;;;22.10;17.50;;;12.20;99.90;;;;;;5069676;28;20371;-79
2021/09/02 05:25:11;;;;;;;17.90;15.98;;;12.40;99.90;;;;;;5069668;28;20424;-80
2021/09/02 05:27:38;;;;;;;18.23;16.07;;;12.50;99.90;;;;;;5069494;28;20402;-81
2021/09/02 05:30:06;;;;;;;22.92;17.60;;;12.70;99.90;;;;;;5069583;28;20384;-81
2021/09/02 05:32:32;;;;;;;26.05;19.73;;;12.80;99.90;;;;;;5069940;28;20396;-81
2021/09/02 05:34:58;;;;;;;36.95;21.95;;;13.00;99.90;;;;;;5069638;28;20384;-81
2021/09/02 05:37:23;;;;;;;32.08;22.13;;;13.10;99.90;;;;;;5069394;28;20374;-80
2021/09/02 05:39:49;;;;;;;29.37;20.70;;;13.30;99.90;;;;;;5069291;28;20497;-81
2021/09/02 05:42:14;;;;;;;41.83;23.77;;;13.40;99.90;;;;;;5069487;28;21165;-81
2021/09/02 05:44:40;;;;;;;44.13;26.13;;;13.60;99.90;;;;;;5069364;28;20909;-81
2021/09/02 05:47:06;;;;;;;35.78;24.02;;;13.70;99.90;;;;;;5069442;28;20398;-80
2021/09/02 05:49:31;;;;;;;31.08;21.92;;;13.80;99.90;;;;;;5069558;28;20433;-81
2021/09/02 05:51:57;;;;;;;41.13;23.67;;;13.90;99.90;;;;;;5068431;28;20437;-82
2021/09/02 05:54:22;;;;;;;42.08;22.85;;;14.00;99.90;;;;;;5069144;28;20790;-79
2021/09/02 05:56:48;;;;;;;39.50;22.80;;;14.10;99.90;;;;;;5069439;28;20378;-79
2021/09/02 05:59:14;;;;;;;30.10;19.42;;;14.20;99.90;;;;;;5068847;28;20366;-79
2021/09/02 06:01:39;;;;;;;27.98;19.38;;;14.30;99.90;;;;;;5067695;28;20389;-80
2021/09/02 06:04:05;;;;;;;38.77;19.63;;;14.40;99.90;;;;;;5068019;28;20382;-81
2021/09/02 06:06:31;;;;;;;34.90;18.95;;;14.40;99.90;;;;;;5068644;28;20744;-82
2021/09/02 06:08:56;;;;;;;23.47;18.07;;;14.40;99.90;;;;;;5067349;28;20383;-82
2021/09/02 06:11:22;;;;;;;31.05;18.48;;;14.50;99.90;;;;;;5068978;28;20473;-81
2021/09/02 06:13:47;;;;;;;30.67;18.40;;;14.60;99.90;;;;;;5069026;28;20393;-83
2021/09/02 06:16:13;;;;;;;25.70;18.10;;;14.60;99.90;;;;;;5069175;28;20389;-80
2021/09/02 06:18:39;;;;;;;18.13;16.30;;;14.60;99.90;;;;;;5068640;28;20378;-83
2021/09/02 06:21:04;;;;;;;21.93;15.60;;;14.60;99.90;;;;;;5068824;28;20670;-83
2021/09/02 06:23:30;;;;;;;26.10;15.35;;;14.70;99.90;;;;;;5068867;28;20460;-81
2021/09/02 06:25:56;;;;;;;26.33;16.23;;;14.80;99.90;;;;;;5068829;28;20398;-81
2021/09/02 06:28:21;;;;;;;21.07;15.37;;;14.70;99.90;;;;;;5067248;28;20418;-82
2021/09/02 06:30:48;;;;;;;19.80;14.63;;;14.70;99.90;;;;;;5068791;28;20393;-81
2021/09/02 06:33:14;;;;;;;25.75;14.60;;;14.70;99.90;;;;;;5067603;28;20864;-84
2021/09/02 06:35:39;;;;;;;28.02;15.38;;;14.70;99.90;;;;;;5068623;28;20392;-83
2021/09/02 06:38:05;;;;;;;23.77;15.13;;;14.50;99.90;;;;;;5068712;28;20370;-82
2021/09/02 06:40:31;;;;;;;31.27;15.88;;;14.60;99.90;;;;;;5068085;28;21038;-81
2021/09/02 06:42:57;;;;;;;17.23;15.45;;;14.40;99.90;;;;;;5068841;28;20374;-81
2021/09/02 06:45:23;;;;;;;19.93;16.97;;;14.40;99.90;;;;;;5068417;28;20444;-80
2021/09/02 06:47:48;;;;;;;23.10;16.77;;;14.50;99.90;;;;;;5067182;28;20401;-83
2021/09/02 06:50:14;;;;;;;17.27;15.65;;;14.50;99.90;;;;;;5068327;28;20415;-81
2021/09/02 06:52:41;;;;;;;21.10;19.00;;;14.50;99.90;;;;;;5067233;28;21039;-84
2021/09/02 06:55:07;;;;;;;18.75;16.85;;;14.50;99.90;;;;;;5067736;28;21105;-82
2021/09/02 06:57:33;;;;;;;18.98;17.05;;;14.40;99.90;;;;;;5079028;28;20386;-81
2021/09/02 06:59:59;;;;;;;20.08;18.08;;;14.40;99.90;;;;;;5069166;28;20374;-84
2021/09/02 07:02:25;;;;;;;19.63;17.53;;;14.40;99.90;;;;;;5074971;28;20726;-80
2021/09/02 07:04:51;;;;;;;18.20;16.40;;;14.40;99.90;;;;;;5092736;28;20448;-81
2021/09/02 07:07:17;;;;;;;17.45;15.75;;;14.60;99.90;;;;;;5092344;28;20480;-83
2021/09/02 07:09:42;;;;;;;17.70;15.82;;;14.70;99.90;;;;;;5092345;28;20464;-81
2021/09/02 07:12:08;;;;;;;16.60;15.00;;;14.80;99.90;;;;;;5092623;28;20459;-81
2021/09/02 07:14:33;;;;;;;16.40;14.90;;;14.70;99.90;;;;;;5092212;28;20396;-81
2021/09/02 07:16:59;;;;;;;14.77;13.47;;;14.80;99.90;;;;;;5088720;28;20372;-79
2021/09/02 07:19:24;;;;;;;14.97;13.60;;;14.90;99.90;;;;;;5083481;28;20386;-82
2021/09/02 07:21:50;;;;;;;15.27;13.83;;;14.90;99.90;;;;;;5072184;28;20859;-80
2021/09/02 07:24:16;;;;;;;16.40;14.90;;;14.90;99.90;;;;;;5083933;28;20481;-80
2021/09/02 07:26:41;;;;;;;15.30;13.90;;;15.00;99.90;;;;;;5090404;28;20396;-82
2021/09/02 07:29:08;;;;;;;15.60;14.20;;;15.10;99.90;;;;;;5090341;28;20377;-79
2021/09/02 07:31:39;;;;;;;16.23;14.73;;;15.20;99.90;;;;;;5094977;28;20384;-82
2021/09/02 07:34:05;;;;;;;14.45;13.13;;;15.50;99.90;;;;;;5090863;28;20925;-82
2021/09/02 07:36:31;;;;;;;14.87;13.50;;;15.60;99.90;;;;;;5092438;28;20467;-81
2021/09/02 07:38:56;;;;;;;15.93;14.43;;;15.70;99.90;;;;;;5091817;28;20526;-82
2021/09/02 07:41:22;;;;;;;16.15;14.60;;;15.70;99.90;;;;;;5092229;28;20779;-83
2021/09/02 07:43:47;;;;;;;15.60;14.10;;;15.70;99.90;;;;;;5092030;28;20379;-82
2021/09/02 07:46:13;;;;;;;15.25;13.88;;;15.90;99.90;;;;;;5091879;28;20885;-85
2021/09/02 07:48:41;;;;;;;16.17;14.53;;;16.00;99.90;;;;;;5092050;28;20373;-83
2021/09/02 07:51:07;;;;;;;16.60;15.00;;;16.10;99.90;;;;;;5087060;28;20891;-83
2021/09/02 07:53:33;;;;;;;15.50;14.02;;;16.20;99.90;;;;;;5091344;28;20930;-81
2021/09/02 07:55:58;;;;;;;15.35;13.95;;;16.30;99.90;;;;;;5091467;28;20456;-84
2021/09/02 07:58:24;;;;;;;15.73;14.13;;;16.40;99.90;;;;;;5091133;28;20380;-82
2021/09/02 08:00:49;;;;;;;14.82;13.45;;;16.50;99.90;;;;;;5091294;28;20456;-82
2021/09/02 08:03:15;;;;;;;15.40;14.00;;;16.50;99.90;;;;;;5091233;28;20373;-82
2021/09/02 08:05:41;;;;;;;15.68;14.18;;;16.60;99.90;;;;;;5091113;28;20809;-82
2021/09/02 08:08:07;;;;;;;16.10;14.53;;;16.40;99.90;;;;;;5091461;28;20472;-79
2021/09/02 08:10:33;;;;;;;14.70;13.23;;;16.20;99.90;;;;;;5091241;28;20372;-82
2021/09/02 08:12:59;;;;;;;16.90;15.27;;;16.40;99.90;;;;;;5082822;28;20933;-81
2021/09/02 08:15:25;;;;;;;16.02;14.43;;;16.40;99.90;;;;;;5086051;28;20384;-83
2021/09/02 08:17:53;;;;;;;17.85;16.02;;;16.40;99.90;;;;;;5091009;28;20380;-81
2021/09/02 08:20:20;;;;;;;18.05;16.35;;;16.40;99.90;;;;;;5089534;28;20901;-80
2021/09/02 08:22:47;;;;;;;18.83;17.13;;;16.20;99.90;;;;;;5090949;28;20376;-84
2021/09/02 08:25:14;;;;;;;19.00;17.17;;;16.10;99.90;;;;;;5091061;28;20368;-82
2021/09/02 08:27:41;;;;;;;19.08;17.23;;;16.20;99.90;;;;;;5090786;28;20400;-82
2021/09/02 08:30:08;;;;;;;20.50;18.40;;;16.20;99.90;;;;;;5089454;28;20364;-82
2021/09/02 08:32:35;;;;;;;20.17;18.17;;;16.10;99.90;;;;;;5073595;28;20363;-81
2021/09/02 08:35:00;;;;;;;19.90;17.83;;;16.20;99.90;;;;;;5070632;28;20451;-79
2021/09/02 08:37:26;;;;;;;18.80;17.00;;;16.20;99.90;;;;;;5070070;28;20848;-81
2021/09/02 08:39:52;;;;;;;18.30;16.50;;;16.40;99.90;;;;;;5070527;28;20559;-83
2021/09/02 08:42:19;;;;;;;19.50;17.58;;;16.50;99.90;;;;;;5070476;28;20817;-79
2021/09/02 08:44:45;;;;;;;19.20;17.27;;;16.60;99.90;;;;;;5070050;28;20449;-84
2021/09/02 08:47:12;;;;;;;19.50;17.50;;;16.50;99.90;;;;;;5070080;28;20502;-83
2021/09/02 08:49:38;;;;;;;19.07;17.03;;;16.60;99.90;;;;;;5069945;28;20378;-81
2021/09/02 08:52:05;;;;;;;19.13;17.08;;;16.70;99.90;;;;;;5070584;28;20385;-83
2021/09/02 08:54:33;;;;;;;20.52;18.45;;;16.90;99.90;;;;;;5070456;28;20871;-83
2021/09/02 08:56:59;;;;;;;20.08;17.65;;;16.90;99.90;;;;;;5069932;28;20374;-81
2021/09/02 08:59:25;;;;;;;19.90;17.85;;;16.80;99.90;;;;;;5069994;28;20374;-82
2021/09/02 09:01:51;;;;;;;18.90;17.07;;;16.70;99.90;;;;;;5070412;28;20370;-80
2021/09/02 09:04:17;;;;;;;20.33;16.92;;;16.80;99.90;;;;;;5070060;28;20740;-82
2021/09/02 09:06:43;;;;;;;19.40;17.40;;;16.90;99.90;;;;;;5067267;28;20406;-82
2021/09/02 09:09:12;;;;;;;20.83;17.73;;;17.00;99.90;;;;;;5087292;28;20376;-83
2021/09/02 09:11:47;;;;;;;19.55;16.75;;;17.20;99.90;;;;;;5088482;28;20821;-81
2021/09/02 09:14:18;;;;;;;18.77;16.73;;;17.40;99.90;;;;;;5087746;28;21010;-85
2021/09/02 09:16:51;;;;;;;19.67;17.20;;;17.40;99.90;;;;;;5086539;28;20384;-80
2021/09/02 09:19:37;;;;;;;21.33;17.77;;;17.60;99.90;;;;;;5087032;28;20463;-80
2021/09/02 09:22:08;;;;;;;22.37;18.20;;;17.50;99.90;;;;;;5087465;28;20400;-80
2021/09/02 09:24:56;;;;;;;20.98;17.80;;;17.50;99.90;;;;;;5088403;28;20742;-81
2021/09/02 09:27:33;;;;;;;21.40;17.87;;;17.60;99.90;;;;;;5087206;28;20402;-82
2021/09/02 09:30:19;;;;;;;21.27;17.60;;;17.60;99.90;;;;;;5089215;28;20376;-81
2021/09/02 09:32:52;;;;;;;21.23;17.27;;;17.90;99.90;;;;;;5089520;28;20368;-82
2021/09/02 09:35:28;;;;;;;18.92;16.92;;;18.00;99.90;;;;;;5089604;28;20455;-81
2021/09/02 09:38:05;;;;;;;19.48;16.02;;;18.10;99.90;;;;;;5115661;27;20388;-82
2021/09/02 09:40:32;;;;;;;16.58;14.65;;;18.20;99.90;;;;;;5130157;27;20378;-81
2021/09/02 09:43:01;;;;;;;19.38;15.32;;;18.50;99.90;;;;;;5129911;27;20388;-83
2021/09/02 09:45:45;;;;;;;17.58;14.32;;;18.60;99.90;;;;;;5129027;27;20394;-82
2021/09/02 09:48:22;;;;;;;16.65;14.50;;;18.80;99.90;;;;;;5129409;27;20468;-80
2021/09/02 09:51:10;;;;;;;18.40;15.07;;;18.90;99.90;;;;;;5130203;27;20496;-83
2021/09/02 09:53:37;;;;;;;16.38;14.25;;;19.00;99.90;;;;;;5130428;27;20384;-79
2021/09/02 09:56:03;;;;;;;15.85;13.55;;;19.10;99.90;;;;;;5130814;27;20884;-81
2021/09/02 09:58:29;;;;;;;16.95;14.38;;;19.20;99.90;;;;;;5130487;27;20384;-81
2021/09/02 10:00:57;;;;;;;15.55;13.68;;;19.00;99.90;;;;;;5130547;27;20370;-81
2021/09/02 10:03:23;;;;;;;13.95;12.25;;;19.10;99.90;;;;;;5130508;27;20373;-83
2021/09/02 10:05:49;;;;;;;14.25;12.70;;;19.40;99.90;;;;;;5130406;27;20456;-81
2021/09/02 10:08:16;;;;;;;14.10;12.05;;;19.50;99.90;;;;;;5129816;27;20419;-80
2021/09/02 10:10:41;;;;;;;12.88;11.50;;;19.70;99.90;;;;;;5130370;27;20402;-79
2021/09/02 10:13:08;;;;;;;14.40;11.17;;;20.00;99.90;;;;;;5130402;27;20468;-80
2021/09/02 10:15:34;;;;;;;13.73;11.95;;;20.30;99.90;;;;;;5130379;27;20455;-82
2021/09/02 10:18:01;;;;;;;14.80;12.65;;;20.40;99.90;;;;;;5130398;27;20369;-80
2021/09/02 10:20:33;;;;;;;14.50;12.77;;;20.20;99.90;;;;;;5113149;27;20381;-83
2021/09/02 10:23:01;;;;;;;17.70;13.75;;;20.00;99.90;;;;;;5131464;27;20494;-80
2021/09/02 10:25:33;;;;;;;20.33;14.17;;;19.70;99.90;;;;;;5128943;27;20471;-80
2021/09/02 10:28:12;;;;;;;15.40;12.85;;;19.60;99.90;;;;;;5129580;27;20447;-80
2021/09/02 10:30:48;;;;;;;16.88;12.77;;;19.70;99.90;;;;;;5130120;27;20743;-83
2021/09/02 10:33:36;;;;;;;15.75;13.07;;;19.80;99.90;;;;;;5111164;27;20456;-83
2021/09/02 10:36:11;;;;;;;13.57;12.05;;;20.10;99.90;;;;;;5129882;27;20357;-82
2021/09/02 10:38:46;;;;;;;16.40;12.90;;;20.30;99.90;;;;;;5129757;27;20417;-81
2021/09/02 10:41:13;;;;;;;16.57;13.07;;;20.50;99.90;;;;;;5130087;27;20433;-79
2021/09/02 10:43:59;;;;;;;17.70;13.25;;;20.60;99.90;;;;;;5129324;27;20846;-80
2021/09/02 10:46:38;;;;;;;14.65;12.90;;;20.30;99.90;;;;;;5129340;27;20458;-84
2021/09/02 10:49:31;;;;;;;14.25;12.63;;;20.10;99.90;;;;;;5129464;27;20422;-80
2021/09/02 10:52:05;;;;;;;13.65;12.25;;;20.30;99.90;;;;;;5129827;28;20481;-84
2021/09/02 10:54:39;;;;;;;15.05;12.13;;;20.40;99.90;;;;;;5129341;28;20376;-83
2021/09/02 10:57:13;;;;;;;14.45;12.45;;;20.40;99.90;;;;;;5129828;28;20440;-82
2021/09/02 10:59:52;;;;;;;13.05;10.52;;;20.80;99.90;;;;;;5129654;28;20450;-78
2021/09/02 11:02:21;;;;;;;13.70;11.88;;;21.30;99.90;;;;;;5113215;28;21039;-81
2021/09/02 11:05:05;;;;;;;14.53;11.97;;;21.60;99.90;;;;;;5116660;28;21159;-81
2021/09/02 11:07:37;;;;;;;13.77;12.27;;;21.30;99.90;;;;;;5108645;28;20410;-81
2021/09/02 11:10:22;;;;;;;16.07;12.27;;;20.70;99.90;;;;;;5109331;28;20463;-82
2021/09/02 11:13:01;;;;;;;15.52;11.48;;;20.60;99.90;;;;;;5108786;28;20387;-79
2021/09/02 11:15:27;;;;;;;16.80;12.40;;;20.50;99.90;;;;;;5109310;28;20729;-80
2021/09/02 11:18:01;;;;;;;14.88;10.73;;;20.50;99.90;;;;;;5109099;28;20453;-83
2021/09/02 11:20:29;;;;;;;14.10;10.43;;;20.90;99.90;;;;;;5108777;28;20470;-81
2021/09/02 11:23:08;;;;;;;14.05;10.43;;;21.10;99.90;;;;;;5109156;28;20445;-84
2021/09/02 11:25:41;;;;;;;14.93;10.80;;;21.30;99.90;;;;;;5108647;28;20861;-82
2021/09/02 11:28:06;;;;;;;15.47;10.80;;;21.50;99.90;;;;;;5108880;28;20402;-83
2021/09/02 11:30:33;;;;;;;12.20;9.50;;;21.70;99.90;;;;;;5109664;28;20755;-82
2021/09/02 11:33:01;;;;;;;14.27;9.57;;;22.10;99.90;;;;;;5109776;28;20366;-84
2021/09/02 11:35:27;;;;;;;14.05;9.52;;;22.30;99.90;;;;;;5108937;28;20394;-82
2021/09/02 11:37:53;;;;;;;15.30;9.27;;;22.40;99.90;;;;;;5108666;28;20394;-83
2021/09/02 11:40:23;;;;;;;13.55;9.02;;;22.50;99.90;;;;;;5108569;28;20367;-81
2021/09/02 11:42:50;;;;;;;13.38;9.43;;;22.30;99.90;;;;;;5108741;28;20423;-82
2021/09/02 11:45:20;;;;;;;13.87;8.83;;;22.00;99.90;;;;;;5108593;28;21635;-79
2021/09/02 11:47:48;;;;;;;14.00;9.35;;;22.00;99.90;;;;;;5108703;28;20375;-79
2021/09/02 11:50:14;;;;;;;15.40;9.73;;;22.20;99.90;;;;;;5092787;28;20880;-80
2021/09/02 11:52:41;;;;;;;13.77;9.37;;;22.20;99.90;;;;;;5112449;28;20378;-83
2021/09/02 11:55:12;;;;;;;14.52;9.63;;;22.30;99.90;;;;;;5112519;28;20367;-81
2021/09/02 11:57:38;;;;;;;15.63;9.55;;;22.00;99.90;;;;;;5094385;28;20440;-80
2021/09/02 12:00:04;;;;;;;15.13;9.77;;;21.80;99.90;;;;;;5112355;28;20402;-81
2021/09/02 12:02:30;;;;;;;16.07;10.50;;;21.70;99.90;;;;;;5093913;28;20423;-82
2021/09/02 12:04:56;;;;;;;15.45;10.27;;;21.40;99.90;;;;;;5111126;28;20375;-82
2021/09/02 12:07:22;;;;;;;14.63;10.32;;;21.20;99.90;;;;;;5110993;28;20382;-81
2021/09/02 12:09:50;;;;;;;15.38;9.75;;;21.00;99.90;;;;;;5109998;28;20383;-82
2021/09/02 12:12:32;;;;;;;17.70;9.65;;;21.20;99.90;;;;;;5108935;28;20429;-81
2021/09/02 12:14:58;;;;;;;16.33;10.07;;;21.50;99.90;;;;;;5108983;28;20402;-83
2021/09/02 12:17:36;;;;;;;15.43;10.35;;;21.90;99.90;;;;;;5108825;28;20403;-83
2021/09/02 12:20:04;;;;;;;14.35;9.20;;;22.10;99.90;;;;;;5108888;28;20386;-82
2021/09/02 12:22:31;;;;;;;15.73;9.97;;;22.40;99.90;;;;;;5109013;28;20371;-84
2021/09/02 12:25:29;;;;;;;16.07;11.10;;;22.40;99.90;;;;;;5109724;28;20374;-82
2021/09/02 12:27:55;;;;;;;14.60;10.88;;;22.20;99.90;;;;;;5073270;27;20395;-83
2021/09/02 12:30:41;;;;;;;18.27;10.75;;;21.80;99.90;;;;;;5090482;28;20375;-81